Saturday, June 25, 2016
03:24 UTC
  |  Log In   |  Register Free
Airport Search:

South Big Horn County Airport
(KGEY)

South Big Horn County Airport Diagram
No Airport Diagram Available

FAA data valid effective May 26 2016 - Jul 21 2016 (unless otherwise noted).

 
 
 
 
 
 
 
 
 
 
 
 
 
 
Current Aviation Weather for KGEY

Weather Summary


Current weather conditions are not available for GEY - The nearest NOAA weather station is at U68, (28.3 nm NW from GEY)

The most recent METAR observation for GEY was updated at: 12:53 UTC
METAR for KGEY is not available. Closest METAR is for KU68
KGEY  (most recent observation was updatred at 25:02 UTC)
250253Z AUTO 29017G24KT 10SM CLR 29/M10 A2978 RMK AO2 PKWND 29035/0206 SLP039 T02891100 53029

KU68  (28.3 nm SE)   (most recent observation was updated at 25:03 UTC)
250315Z AUTO 03014G23KT 10SM CLR 22/03 A2987 RMK AO2

KWRL  (33.8 nm NW)   (most recent observation was updated at 25:02 UTC)
250253Z AUTO 24013KT 10SM CLR 26/M03 A2982 RMK AO2 PKWND 24029/0203 SLP048 T02611028 53027

TAF for KGEY is not available.
KWRL  (33.8 nm NW)   (most recent observation was updatred at 24:23 UTC)
242327Z 2500/2524 25020G30KT P6SM FEW120 FM250100 32018G26KT P6SM SKC FM250400 34011KT P6SM SKC FM250900 34007KT P6SM SKC


GlobalAir.com is loading additional information.
 Current Weather at GEY
89.0 F° (31.7 C°)

West winds at 29.9 mph
Pressure:
29.75 in
Humidity:
6%
Wind:
West at 29.9 mph
Dew Point:
15.1 F° (-9.4 C°)
Visibility:
10.00 mi
GEY NOAA Radar




Find All Airport Services Find A Hotel Find A Rental Car Find A Golf Course Find A Restaurant $100 Hamburger



Airport Weather Forecast for KGEY

Translated METAR for KGEY (0253 UTC)
METAR:
KGEY 250253Z AUTO 29017G24KT 10SM CLR 29/M10 A2978 RMK AO2 PKWND 29035/0206 SLP039 T02891100 53029
Conditions at:
KGEY (South Big Horn County, WY) observed 0253 UTC 24 June 2016
Temperature:
29°C (84.2°F)
Dewpoint:
-10°C (14°F) [RH = 7.2]
Pressure:
29.78 inches Hg (1008.5 mb)
pressure at sea level is 39 in Hg
Winds:
from the WNW (290 degrees) at 19.6 mph (17 knots: 8.7 m/s)
gusting to 27.6 mph (24 knots: 12.3 m/s)
Visibility:
10 mile(s)
Ceiling:
at least 12,000 feet AGL
Clouds:
Clear below 12,000 feet AGL
Remarks:
site is un-manned
site is automated and HAS a precipitation sensor

Translated TAF for KWRL (Worland Muni, WY) (2327 UTC)
TAF text:
KWRL 242327Z 2500/2524 25020G30KT P6SM FEW120
Forecast period:
Saturday Jun 25 2016 00:00 UTC - Saturday Jun 25 2016 24:00 UTC
Forecast type:
FROM: standard forecast or significant change
Winds:
from the WSW (250 degrees) at 23 mph (20 knots: 10.3 m/s)
gusting to 34.5 mph (30 knots: 15.4 m/s)
Visibility:
6 or more mile(s) (9.7+ km)
Ceiling:
at least 12,000 feet AGL
Clouds:
Few Clouds at 12,000 feet AGL
Weather:
no significant weather observed at this time
TAF text:
FM250100 32018G26KT P6SM SKC
Forecast period:
Saturday Jun 25 2016 01:00 UTC - Saturday Jun 25 2016 04:00 UTC
Forecast type:
FROM: standard forecast or significant change
Winds:
from the NW (320 degrees) at 20.7 mph (18 knots: 9.3 m/s)
gusting to 29.9 mph (26 knots: 13.4 m/s)
Visibility:
6 or more mile(s) (9.7+ km)
Ceiling:
at least 12,000 feet AGL
Clouds:
Clear Skies
Weather:
no significant weather observed at this time
TAF text:
FM250400 34011KT P6SM SKC
Forecast period:
Saturday Jun 25 2016 04:00 UTC - Saturday Jun 25 2016 09:00 UTC
Forecast type:
FROM: standard forecast or significant change
Winds:
from the NNW (340 degrees) at 12.7 mph (11 knots: 5.7 m/s)
Visibility:
6 or more mile(s) (9.7+ km)
Ceiling:
at least 12,000 feet AGL
Clouds:
Clear Skies
Weather:
no significant weather observed at this time
TAF text:
FM250900 34007KT P6SM SKC
Forecast period:
Saturday Jun 25 2016 09:00 UTC - Saturday Jun 25 2016 24:00 UTC
Forecast type:
FROM: standard forecast or significant change
Winds:
from the NNW (340 degrees) at 8.1 mph (7 knots: 3.6 m/s)
Visibility:
6 or more mile(s) (9.7+ km)
Ceiling:
at least 12,000 feet AGL
Clouds:
Clear Skies
Weather:
no significant weather observed at this time
FBO's on the Field
FBO Company Facility Photos Services Transportation Aviation Fuel Prices: Prices include tax
Catering Weather Repair Courtesy Rental Type 100LL JetA JetA+ MOGAS 8087
 
B & G Industries, LLC

This FBO has not yet been rated
FS:Independent
Last Updated: Jun-24
Login to update fuel prices
SS:
Contact B & G Industries, LLCMore FBO Information
 
South Big Horn County Airport

This FBO has not yet been rated
FS:Phillips 66
Last Updated: Jun-03
Login to update fuel prices
SS:
Contact South Big Horn County AirportMore FBO Information
 
Add another FBO Facility Photos Catering Weather Repair Courtesy Rental Type 100LL JetA JetA+ MOGAS 8087
Services Transportation Aviation Fuel Prices: Prices include tax


model-print
model-print
model-print
model-print